Hurley, Wisconsin
Current Conditions -  °F | °C
As of 11:55 AM on Sunday 28 Dec 2014 (Local Time) from KIWD Reporting Station
Overcast Overcast  
Wind Chill:   Ceiling: 2100
Heat Index: 14°   Visibility: 10mi
Dew Point:   Wind: 10mph
Humidity: 79%   Direction: 300°WNW
Pressure: 30.08"   Gusts: NA
Location:  46.45°N, 90.19°W
Report Text: KIWD 281755Z AUTO 30009KT 10SM OVC021 M10/M13 A3008 RMK AO1 11080 21100 52017
Loading
Personal Weather Stations






























Interactive Weather Map New forecast layout! Learn more

10-Day Weather Forecast

Advertisements
Track Severe Weather on mobile